Time;durP1;ratioP1;P1;durP2;ratioP2;P2;SDS_P1;SDS_P2;PMS_P1;PMS_P2;Temp;Humidity;BMP_temperature;BMP_pressure;BME280_temperature;BME280_humidity;BME280_pressure;Samples;Min_cycle;Max_cycle;Signal;HPM_P1;HPM_P2
2021/09/22 00:00:14;;;;;;;;;;;;;;;10.98;77.76;98913.23;1718554;81;26327;-88
2021/09/22 00:02:42;;;;;;;;;;;;;;;10.93;77.84;98905.67;1690066;84;20194;-88
2021/09/22 00:05:16;;;;;;;;;;;;;;;10.91;77.91;98906.23;1690348;84;20217;-88
2021/09/22 00:07:42;;;;;;;;;;;;;;;10.89;78.01;98898.48;1690490;84;24816;-88
2021/09/22 00:10:10;;;;;;;;;;;;;;;10.87;78.08;98895.58;1651444;85;21943;-88
2021/09/22 00:12:36;;;;;;;;;;;;;;;10.86;78.17;98892.59;1683983;84;26740;-88
2021/09/22 00:15:10;;;;;;;;;;;;;;;10.85;78.25;98894.40;1649970;85;24463;-88
2021/09/22 00:17:36;;;;;;;;;;;;;;;10.81;78.31;98893.35;1653704;85;20223;-88
2021/09/22 00:20:03;;;;;;;;;;;;;;;10.79;78.40;98891.32;1691130;83;24809;-87
2021/09/22 00:22:30;;;;;;;;;;;;;;;10.78;78.46;98885.24;1690907;83;22031;-89
2021/09/22 00:24:56;;;;;;;;;;;;;;;10.77;78.57;98884.86;1654890;84;26071;-88
2021/09/22 00:27:22;;;;;;;;;;;;;;;10.75;78.64;98884.58;1651673;85;20332;-88
2021/09/22 00:29:48;;;;;;;;;;;;;;;10.74;78.71;98882.92;1690620;83;20332;-89
2021/09/22 00:32:14;;;;;;;;;;;;;;;10.70;78.79;98887.48;1632959;86;20263;-88
2021/09/22 00:34:40;;;;;;;;;;;;;;;10.66;78.86;98887.78;1638308;86;22030;-88
2021/09/22 00:37:06;;;;;;;;;;;;;;;10.61;78.94;98883.30;1637814;86;25946;-88
2021/09/22 00:39:37;;;;;;;;;;;;;;;10.56;78.99;98881.45;1656360;85;24504;-88
2021/09/22 00:42:04;;;;;;;;;;;;;;;10.51;79.08;98876.97;1656767;83;20234;-88
2021/09/22 00:44:30;;;;;;;;;;;;;;;10.46;79.13;98882.03;1635071;86;24929;-88
2021/09/22 00:46:56;;;;;;;;;;;;;;;10.43;79.22;98884.82;1646804;86;20891;-88
2021/09/22 00:49:24;;;;;;;;;;;;;;;10.41;79.30;98875.41;1621018;86;26046;-88
2021/09/22 00:51:50;;;;;;;;;;;;;;;10.37;79.39;98876.50;1655520;85;24635;-88
2021/09/22 00:54:16;;;;;;;;;;;;;;;10.35;79.46;98869.23;1654294;85;20954;-88
2021/09/22 00:56:51;;;;;;;;;;;;;;;10.32;79.55;98867.64;1631086;86;24820;-88
2021/09/22 00:59:17;;;;;;;;;;;;;;;10.30;79.65;98866.07;1631740;86;21987;-88
2021/09/22 01:01:48;;;;;;;;;;;;;;;10.26;79.74;98860.16;1652854;85;20996;-88
2021/09/22 01:04:11;;;;;;;;;;;;;;;10.24;79.82;98861.22;1635928;86;25417;-88
2021/09/22 01:06:37;;;;;;;;;;;;;;;10.20;79.94;98855.81;1654362;85;20340;-88
2021/09/22 01:09:03;;;;;;;;;;;;;;;10.17;80.02;98859.44;1626458;86;20719;-88
2021/09/22 01:11:31;;;;;;;;;;;;;;;10.17;80.12;98852.05;1629921;86;20815;-88
2021/09/22 01:13:56;;;;;;;;;;;;;;;10.16;80.20;98855.13;1628188;86;25929;-88
2021/09/22 01:16:23;;;;;;;;;;;;;;;10.14;80.30;98850.45;1627976;86;20918;-88
2021/09/22 01:18:50;;;;;;;;;;;;;;;10.17;80.41;98850.28;1610671;86;20567;-88
2021/09/22 01:21:20;;;;;;;;;;;;;;;10.17;80.49;98846.82;1613912;87;24940;-88
2021/09/22 01:23:48;;;;;;;;;;;;;;;10.17;80.59;98841.13;1615092;86;22071;-88
2021/09/22 01:26:14;;;;;;;;;;;;;;;10.17;80.67;98834.59;1616941;86;26012;-88
2021/09/22 01:28:40;;;;;;;;;;;;;;;10.16;80.75;98830.28;1653395;86;24400;-88
2021/09/22 01:31:06;;;;;;;;;;;;;;;10.17;80.85;98825.91;1628583;86;20788;-88
2021/09/22 01:33:32;;;;;;;;;;;;;;;10.19;80.96;98825.34;1628906;86;24885;-88
2021/09/22 01:35:58;;;;;;;;;;;;;;;10.20;81.04;98822.61;1642022;86;22009;-88
2021/09/22 01:38:26;;;;;;;;;;;;;;;10.22;81.12;98814.68;1643847;86;25995;-88
2021/09/22 01:40:53;;;;;;;;;;;;;;;10.20;81.20;98815.27;1656011;85;25191;-88
2021/09/22 01:43:22;;;;;;;;;;;;;;;10.19;81.29;98812.27;1637008;86;20189;-88
2021/09/22 01:45:48;;;;;;;;;;;;;;;10.21;81.35;98809.08;1620780;86;24773;-88
2021/09/22 01:48:14;;;;;;;;;;;;;;;10.20;81.42;98806.92;1616785;87;20274;-89
2021/09/22 01:50:40;;;;;;;;;;;;;;;10.21;81.51;98803.84;1639080;86;21041;-89
2021/09/22 01:53:06;;;;;;;;;;;;;;;10.21;81.60;98799.45;1637958;86;20293;-89
2021/09/22 01:55:32;;;;;;;;;;;;;;;10.25;81.66;98797.05;1641915;86;20561;-88
2021/09/22 01:58:00;;;;;;;;;;;;;;;10.28;81.74;98796.84;1636594;86;20265;-88
2021/09/22 02:00:26;;;;;;;;;;;;;;;10.30;81.79;98798.90;1641805;86;22001;-88
2021/09/22 02:02:55;;;;;;;;;;;;;;;10.27;81.87;98789.92;1634879;86;26597;-88
2021/09/22 02:05:29;;;;;;;;;;;;;;;10.28;81.91;98786.38;1634050;86;24661;-88
2021/09/22 02:07:55;;;;;;;;;;;;;;;10.32;81.96;98789.63;1637909;86;20342;-88
2021/09/22 02:10:21;;;;;;;;;;;;;;;10.36;82.01;98778.89;1640540;86;24865;-88
2021/09/22 02:12:47;;;;;;;;;;;;;;;10.39;82.06;98778.69;1638816;86;20242;-88
2021/09/22 02:15:13;;;;;;;;;;;;;;;10.40;82.12;98775.14;1638436;86;26157;-88
2021/09/22 02:17:42;;;;;;;;;;;;;;;10.40;82.17;98772.52;1639124;86;20267;-88
2021/09/22 02:20:14;;;;;;;;;;;;;;;10.41;82.19;98781.22;1643600;86;20501;-88
2021/09/22 02:22:41;;;;;;;;;;;;;;;10.42;82.25;98768.48;1641360;86;24864;-88
2021/09/22 02:25:08;;;;;;;;;;;;;;;10.43;82.27;98761.00;1650356;85;21937;-88
2021/09/22 02:27:37;;;;;;;;;;;;;;;10.47;82.31;98763.81;1631009;86;26626;-88
2021/09/22 02:30:04;;;;;;;;;;;;;;;10.48;82.37;98754.54;1622683;86;24422;-88
2021/09/22 02:32:33;;;;;;;;;;;;;;;10.53;82.42;98756.86;1672642;84;20492;-88
2021/09/22 02:34:59;;;;;;;;;;;;;;;10.58;82.47;98756.12;1673335;83;24770;-88
2021/09/22 02:37:25;;;;;;;;;;;;;;;10.63;82.53;98754.51;1681769;83;20900;-88
2021/09/22 02:39:55;;;;;;;;;;;;;;;10.63;82.57;98749.27;1691593;83;21117;-88
2021/09/22 02:42:22;;;;;;;;;;;;;;;10.65;82.61;98748.69;1655360;85;24537;-88
2021/09/22 02:44:48;;;;;;;;;;;;;;;10.66;82.63;98745.13;1690397;83;20609;-88
2021/09/22 02:47:14;;;;;;;;;;;;;;;10.67;82.64;98738.50;1688996;83;24797;-87
2021/09/22 02:49:41;;;;;;;;;;;;;;;10.70;82.65;98736.98;1693122;83;21906;-88
2021/09/22 02:52:07;;;;;;;;;;;;;;;10.72;82.65;98729.88;1691878;84;26050;-88
2021/09/22 02:54:33;;;;;;;;;;;;;;;10.75;82.68;98728.81;1687972;84;24534;-88
2021/09/22 02:56:59;;;;;;;;;;;;;;;10.76;82.70;98729.19;1690562;84;20345;-88
2021/09/22 02:59:25;;;;;;;;;;;;;;;10.76;82.74;98723.48;1672759;83;24796;-88
2021/09/22 03:01:51;;;;;;;;;;;;;;;10.76;82.77;98722.64;1648656;85;20867;-88
2021/09/22 03:04:17;;;;;;;;;;;;;;;10.75;82.80;98719.19;1653067;85;20987;-88
2021/09/22 03:06:43;;;;;;;;;;;;;;;10.78;82.78;98723.39;1693570;83;24417;-88
2021/09/22 03:09:09;;;;;;;;;;;;;;;10.81;82.82;98720.09;1692366;83;20220;-88
2021/09/22 03:11:35;;;;;;;;;;;;;;;10.82;82.84;98717.85;1690006;83;24795;-88
2021/09/22 03:14:01;;;;;;;;;;;;;;;10.84;82.84;98721.22;1649374;86;20782;-88
2021/09/22 03:16:32;;;;;;;;;;;;;;;10.83;82.88;98709.06;1683107;83;25991;-88
2021/09/22 03:18:57;;;;;;;;;;;;;;;10.85;82.88;98710.28;1685458;83;24480;-89
2021/09/22 03:21:23;;;;;;;;;;;;;;;10.88;82.90;98709.59;1686300;83;20254;-88
2021/09/22 03:23:49;;;;;;;;;;;;;;;10.89;82.92;98707.34;1683160;83;24753;-88
2021/09/22 03:26:15;;;;;;;;;;;;;;;10.89;82.92;98703.42;1685798;83;22062;-89
2021/09/22 03:28:41;;;;;;;;;;;;;;;10.90;82.94;98698.56;1682555;83;25988;-88
2021/09/22 03:31:07;;;;;;;;;;;;;;;10.93;82.95;98695.34;1684404;83;20362;-89
2021/09/22 03:33:33;;;;;;;;;;;;;;;10.94;82.98;98700.95;1690598;83;20359;-88
2021/09/22 03:35:59;;;;;;;;;;;;;;;10.95;82.98;98696.09;1690829;83;20240;-88
2021/09/22 03:38:25;;;;;;;;;;;;;;;10.98;82.96;98699.80;1691794;83;22180;-88
2021/09/22 03:40:52;;;;;;;;;;;;;;;10.98;82.95;98701.95;1692115;83;25999;-88
2021/09/22 03:43:19;;;;;;;;;;;;;;;10.98;82.95;98701.11;1691412;83;24460;-88
2021/09/22 03:45:45;;;;;;;;;;;;;;;10.94;82.96;98690.02;1691665;83;20289;-88
2021/09/22 03:48:12;;;;;;;;;;;;;;;10.90;82.95;98689.86;1691855;83;24811;-88
2021/09/22 03:50:43;;;;;;;;;;;;;;;10.89;82.93;98687.71;1694471;83;22052;-89
2021/09/22 03:53:06;;;;;;;;;;;;;;;10.91;82.94;98683.66;1683884;83;26841;-89
2021/09/22 03:55:32;;;;;;;;;;;;;;;10.91;82.95;98684.50;1689420;83;24434;-88
2021/09/22 03:57:58;;;;;;;;;;;;;;;10.87;82.95;98684.81;1692683;83;20376;-89
2021/09/22 04:00:24;;;;;;;;;;;;;;;10.81;82.95;98683.91;1681685;83;20278;-88
2021/09/22 04:02:50;;;;;;;;;;;;;;;10.81;82.97;98682.60;1678653;83;20869;-89
2021/09/22 04:05:16;;;;;;;;;;;;;;;10.81;83.00;98684.75;1679970;83;21025;-89
2021/09/22 04:07:43;;;;;;;;;;;;;;;10.81;82.99;98678.67;1679751;83;24734;-89
2021/09/22 04:10:09;;;;;;;;;;;;;;;10.82;82.99;98676.43;1676773;83;20348;-88
2021/09/22 04:12:37;;;;;;;;;;;;;;;10.81;83.01;98677.36;1684852;83;22139;-88
2021/09/22 04:15:03;;;;;;;;;;;;;;;10.82;83.03;98679.89;1678535;84;20311;-89
2021/09/22 04:17:30;;;;;;;;;;;;;;;10.80;83.03;98674.41;1681345;83;26211;-89
2021/09/22 04:19:56;;;;;;;;;;;;;;;10.77;83.03;98668.05;1680988;83;20271;-88
2021/09/22 04:22:22;;;;;;;;;;;;;;;10.74;83.03;98677.43;1679242;84;20515;-88
2021/09/22 04:24:48;;;;;;;;;;;;;;;10.73;83.04;98681.82;1684019;83;24787;-88
2021/09/22 04:27:14;;;;;;;;;;;;;;;10.74;83.07;98675.66;1681033;84;22605;-88
2021/09/22 04:29:42;;;;;;;;;;;;;;;10.74;83.08;98670.88;1662476;85;25974;-89
2021/09/22 04:32:08;;;;;;;;;;;;;;;10.73;83.11;98675.28;1668306;84;24507;-89
2021/09/22 04:34:37;;;;;;;;;;;;;;;10.76;83.15;98682.07;1666114;85;20336;-89
2021/09/22 04:37:03;;;;;;;;;;;;;;;10.74;83.17;98679.58;1652858;85;25452;-89
2021/09/22 04:39:29;;;;;;;;;;;;;;;10.74;83.20;98684.81;1659860;84;21935;-89
2021/09/22 04:41:55;;;;;;;;;;;;;;;10.74;83.27;98681.36;1659633;84;26061;-88
2021/09/22 04:44:21;;;;;;;;;;;;;;;10.75;83.31;98683.84;1678640;84;24515;-88
2021/09/22 04:46:47;;;;;;;;;;;;;;;10.75;83.33;98681.23;1656836;85;20235;-88
2021/09/22 04:49:13;;;;;;;;;;;;;;;10.77;83.35;98682.45;1677461;83;20234;-88
2021/09/22 04:51:39;;;;;;;;;;;;;;;10.84;83.37;98686.34;1652143;85;21972;-88
2021/09/22 04:54:05;;;;;;;;;;;;;;;10.85;83.38;98687.55;1710290;82;26157;-89
2021/09/22 04:56:31;;;;;;;;;;;;;;;10.82;83.39;98690.36;1679389;84;24524;-89
2021/09/22 04:58:57;;;;;;;;;;;;;;;10.83;83.43;98684.66;1677956;83;20267;-89
2021/09/22 05:01:24;;;;;;;;;;;;;;;10.84;83.45;98696.81;1676644;83;24807;-89
2021/09/22 05:03:50;;;;;;;;;;;;;;;10.84;83.48;98692.42;1679175;83;22034;-89
2021/09/22 05:06:16;;;;;;;;;;;;;;;10.86;83.51;98695.75;1689428;83;26012;-89
2021/09/22 05:08:42;;;;;;;;;;;;;;;10.89;83.55;98697.34;1684346;83;24449;-88
2021/09/22 05:11:08;;;;;;;;;;;;;;;10.85;83.56;98695.88;1686864;83;20180;-89
2021/09/22 05:13:34;;;;;;;;;;;;;;;10.82;83.59;98693.45;1677768;83;20419;-88
2021/09/22 05:16:00;;;;;;;;;;;;;;;10.86;83.62;98696.22;1688163;83;20290;-89
2021/09/22 05:18:26;;;;;;;;;;;;;;;10.89;83.65;98698.19;1683209;83;25988;-88
2021/09/22 05:20:52;;;;;;;;;;;;;;;10.97;83.67;98700.73;1682871;83;24518;-89
2021/09/22 05:23:18;;;;;;;;;;;;;;;11.04;83.70;98695.00;1680525;83;20370;-88
2021/09/22 05:25:44;;;;;;;;;;;;;;;11.13;83.70;98700.91;1680520;83;24739;-88
2021/09/22 05:28:10;;;;;;;;;;;;;;;11.20;83.73;98697.41;1685177;83;20886;-89
2021/09/22 05:30:36;;;;;;;;;;;;;;;11.15;83.74;98700.81;1679206;83;26062;-88
2021/09/22 05:33:05;;;;;;;;;;;;;;;11.11;83.73;98699.36;1688818;83;24662;-88
2021/09/22 05:35:32;;;;;;;;;;;;;;;11.06;83.75;98706.22;1684109;83;20245;-88
2021/09/22 05:37:59;;;;;;;;;;;;;;;11.00;83.75;98705.79;1684135;84;25502;-88
2021/09/22 05:40:25;;;;;;;;;;;;;;;10.92;83.74;98707.59;1657032;85;22103;-89
2021/09/22 05:42:52;;;;;;;;;;;;;;;10.90;83.75;98706.88;1652204;84;25991;-88
2021/09/22 05:45:18;;;;;;;;;;;;;;;10.88;83.76;98708.75;1655385;84;24508;-88
2021/09/22 05:47:44;;;;;;;;;;;;;;;10.85;83.76;98712.89;1655767;85;20296;-88
2021/09/22 05:50:12;;;;;;;;;;;;;;;10.79;83.76;98710.69;1644520;85;22715;-89
2021/09/22 05:52:38;;;;;;;;;;;;;;;10.78;83.77;98720.31;1654895;84;21973;-89
2021/09/22 05:55:04;;;;;;;;;;;;;;;10.74;83.78;98715.38;1690826;83;20943;-89
2021/09/22 05:57:30;;;;;;;;;;;;;;;10.71;83.81;98718.19;1689821;83;24408;-89
2021/09/22 05:59:56;;;;;;;;;;;;;;;10.69;83.80;98717.47;1694942;83;20729;-88
2021/09/22 06:02:22;;;;;;;;;;;;;;;10.64;83.85;98725.59;1693236;83;20247;-88
2021/09/22 06:04:48;;;;;;;;;;;;;;;10.59;83.85;98725.06;1657218;84;22092;-88
2021/09/22 06:07:14;;;;;;;;;;;;;;;10.56;83.88;98730.50;1651375;85;21085;-88
2021/09/22 06:09:41;;;;;;;;;;;;;;;10.59;83.90;98733.38;1672264;84;24498;-89
2021/09/22 06:12:07;;;;;;;;;;;;;;;10.68;83.98;98724.48;1685755;84;20321;-89
2021/09/22 06:14:33;;;;;;;;;;;;;;;10.87;84.05;98733.25;1682152;83;21022;-88
2021/09/22 06:17:00;;;;;;;;;;;;;;;10.94;84.16;98731.91;1693871;83;21984;-88
2021/09/22 06:19:26;;;;;;;;;;;;;;;10.91;84.20;98721.16;1691914;83;26134;-88
2021/09/22 06:21:52;;;;;;;;;;;;;;;11.01;84.27;98733.19;1674889;84;24428;-88
2021/09/22 06:24:19;;;;;;;;;;;;;;;11.01;84.31;98735.81;1682470;83;20464;-88
2021/09/22 06:26:46;;;;;;;;;;;;;;;11.06;84.35;98740.27;1657911;84;24772;-88
2021/09/22 06:29:12;;;;;;;;;;;;;;;11.01;84.38;98738.42;1656602;84;21998;-89
2021/09/22 06:31:38;;;;;;;;;;;;;;;11.03;84.38;98735.69;1684140;84;25993;-88
2021/09/22 06:34:05;;;;;;;;;;;;;;;10.99;84.39;98737.67;1682097;84;24332;-88
2021/09/22 06:36:32;;;;;;;;;;;;;;;11.02;84.40;98734.84;1680350;83;20233;-88
2021/09/22 06:38:58;;;;;;;;;;;;;;;11.03;84.43;98729.98;1681229;84;24774;-88
2021/09/22 06:41:28;;;;;;;;;;;;;;;10.99;84.43;98735.06;1685445;84;21759;-88
2021/09/22 06:43:52;;;;;;;;;;;;;;;10.89;84.40;98730.91;1683844;83;26017;-88
2021/09/22 06:46:18;;;;;;;;;;;;;;;10.83;84.37;98731.78;1679789;83;24686;-88
2021/09/22 06:48:44;;;;;;;;;;;;;;;10.82;84.33;98734.87;1680984;83;20796;-88
2021/09/22 06:51:11;;;;;;;;;;;;;;;10.81;84.31;98737.58;1656516;84;20243;-88
2021/09/22 06:53:39;;;;;;;;;;;;;;;10.81;84.34;98731.88;1682206;83;22090;-88
2021/09/22 06:56:05;;;;;;;;;;;;;;;10.85;84.35;98729.91;1676099;83;26173;-88
2021/09/22 06:58:31;;;;;;;;;;;;;;;10.91;84.38;98731.62;1687935;83;20785;-88
2021/09/22 07:00:57;;;;;;;;;;;;;;;10.93;84.44;98735.47;1682991;83;20259;-88
2021/09/22 07:03:23;;;;;;;;;;;;;;;10.94;84.47;98730.60;1676335;85;24758;-89
2021/09/22 07:05:49;;;;;;;;;;;;;;;10.97;84.50;98733.00;1684194;83;21940;-89
2021/09/22 07:08:15;;;;;;;;;;;;;;;10.99;84.53;98740.77;1683975;83;26032;-88
2021/09/22 07:10:41;;;;;;;;;;;;;;;11.01;84.58;98740.20;1681842;83;24596;-89
2021/09/22 07:13:07;;;;;;;;;;;;;;;11.01;84.62;98744.97;1687883;83;20266;-88
2021/09/22 07:15:33;;;;;;;;;;;;;;;10.96;84.62;98744.91;1687893;83;25342;-88
2021/09/22 07:17:59;;;;;;;;;;;;;;;10.90;84.62;98748.77;1684851;83;21972;-89
2021/09/22 07:20:26;;;;;;;;;;;;;;;10.78;84.58;98745.65;1684894;83;21021;-88
2021/09/22 07:22:52;;;;;;;;;;;;;;;10.70;84.56;98755.77;1690319;83;24421;-88
2021/09/22 07:25:18;;;;;;;;;;;;;;;10.69;84.52;98755.42;1679227;83;20508;-88
2021/09/22 07:27:44;;;;;;;;;;;;;;;10.60;84.53;98765.16;1689319;83;24702;-88
2021/09/22 07:30:14;;;;;;;;;;;;;;;10.50;84.50;98757.06;1687589;83;22069;-89
2021/09/22 07:32:41;;;;;;;;;;;;;;;10.43;84.48;98764.47;1675799;83;26092;-88
2021/09/22 07:35:09;;;;;;;;;;;;;;;10.43;84.52;98756.61;1668944;84;24492;-89
2021/09/22 07:37:35;;;;;;;;;;;;;;;10.46;84.55;98755.59;1661014;84;20356;-88
2021/09/22 07:40:02;;;;;;;;;;;;;;;10.46;84.61;98756.44;1664765;84;24893;-88
2021/09/22 07:42:28;;;;;;;;;;;;;;;10.47;84.68;98765.94;1656379;85;22275;-89
2021/09/22 07:44:54;;;;;;;;;;;;;;;10.56;84.75;98763.69;1658237;84;20997;-89
2021/09/22 07:47:21;;;;;;;;;;;;;;;10.62;84.85;98778.53;1670575;84;21075;-89
2021/09/22 07:49:47;;;;;;;;;;;;;;;10.60;84.89;98773.84;1655517;85;20560;-89
2021/09/22 07:52:14;;;;;;;;;;;;;;;10.62;84.96;98779.84;1676960;84;24814;-89
2021/09/22 07:54:41;;;;;;;;;;;;;;;10.62;84.99;98781.14;1674942;84;22062;-88
2021/09/22 07:57:09;;;;;;;;;;;;;;;10.65;85.03;98784.02;1672924;84;25983;-89
2021/09/22 07:59:36;;;;;;;;;;;;;;;10.62;85.08;98781.61;1660575;84;24496;-89
2021/09/22 08:02:08;;;;;;;;;;;;;;;10.58;85.09;98785.38;1667023;84;20290;-88
2021/09/22 08:04:36;;;;;;;;;;;;;;;10.60;85.09;98783.48;1665880;84;24877;-88
2021/09/22 08:07:03;;;;;;;;;;;;;;;10.62;85.13;98788.16;1644072;85;37218;-88
2021/09/22 08:09:34;;;;;;;;;;;;;;;10.61;85.16;98787.31;1675909;84;26379;-89
2021/09/22 08:12:00;;;;;;;;;;;;;;;10.62;85.20;98791.62;1665462;85;24523;-88
2021/09/22 08:14:36;;;;;;;;;;;;;;;10.62;85.21;98797.31;1668715;84;20221;-89
2021/09/22 08:17:02;;;;;;;;;;;;;;;10.65;85.22;98802.34;1667915;84;24847;-89
2021/09/22 08:19:33;;;;;;;;;;;;;;;10.67;85.25;98795.24;1663007;84;22060;-89
2021/09/22 08:21:59;;;;;;;;;;;;;;;10.68;85.25;98800.38;1647595;85;26814;-89
2021/09/22 08:24:26;;;;;;;;;;;;;;;10.69;85.25;98799.42;1602275;86;24533;-88
2021/09/22 08:26:54;;;;;;;;;;;;;;;10.64;85.26;98800.66;1614964;86;20255;-88
2021/09/22 08:29:21;;;;;;;;;;;;;;;10.63;85.23;98809.00;1620723;86;24774;-88
2021/09/22 08:31:48;;;;;;;;;;;;;;;10.63;85.21;98804.23;1639857;86;21994;-89
2021/09/22 08:34:15;;;;;;;;;;;;;;;10.67;85.23;98811.78;1647614;84;25533;-89
2021/09/22 08:36:43;;;;;;;;;;;;;;;10.75;85.28;98806.88;1666864;84;24490;-89
2021/09/22 08:39:11;;;;;;;;;;;;;;;10.79;85.32;98811.47;1661493;84;20201;-89
2021/09/22 08:41:38;;;;;;;;;;;;;;;10.89;85.38;98812.55;1662973;84;24903;-89
2021/09/22 08:44:05;;;;;;;;;;;;;;;11.00;85.45;98816.62;1662252;84;22170;-88
2021/09/22 08:46:32;;;;;;;;;;;;;;;11.05;85.48;98815.00;1703067;82;26474;-88
2021/09/22 08:48:59;;;;;;;;;;;;;;;11.09;85.51;98817.31;1662608;84;24273;-87
2021/09/22 08:51:29;;;;;;;;;;;;;;;11.13;85.49;98816.16;1660821;84;20266;-88
2021/09/22 08:53:56;;;;;;;;;;;;;;;11.13;85.49;98818.78;1664536;84;24757;-88
2021/09/22 08:56:23;;;;;;;;;;;;;;;11.16;85.45;98824.30;1662173;84;22110;-88
2021/09/22 08:58:53;;;;;;;;;;;;;;;11.15;85.43;98822.62;1663526;84;26131;-87
2021/09/22 09:01:20;;;;;;;;;;;;;;;11.17;85.39;98822.06;1682871;83;24529;-87
2021/09/22 09:03:47;;;;;;;;;;;;;;;11.13;85.34;98817.94;1687613;83;20291;-88
2021/09/22 09:06:20;;;;;;;;;;;;;;;11.09;85.27;98818.63;1690260;83;24761;-87
2021/09/22 09:08:51;;;;;;;;;;;;;;;11.16;85.24;98821.69;1654167;84;22838;-88
2021/09/22 09:11:32;;;;;;;;;;;;;;;11.25;85.23;98821.06;1684049;83;21429;-89
2021/09/22 09:14:00;;;;;;;;;;;;;;;11.28;85.26;98821.72;1660538;84;24453;-89
2021/09/22 09:16:43;;;;;;;;;;;;;;;11.28;85.22;98821.72;1659349;85;20353;-89
2021/09/22 09:19:11;;;;;;;;;;;;;;;11.37;85.20;98816.80;1653261;84;25008;-89
2021/09/22 09:21:57;;;;;;;;;;;;;;;11.43;85.20;98821.16;1664741;84;22071;-89
2021/09/22 09:24:37;;;;;;;;;;;;;;;11.47;85.20;98823.94;1669162;84;25569;-89
2021/09/22 09:27:04;;;;;;;;;;;;;;;11.51;85.17;98818.84;1656984;85;24420;-89
2021/09/22 09:29:32;;;;;;;;;;;;;;;11.61;85.17;98818.63;1662980;84;20273;-89
2021/09/22 09:32:12;;;;;;;;;;;;;;;11.69;85.18;98811.52;1663171;84;24829;-89
2021/09/22 09:34:57;;;;;;;;;;;;;;;11.66;85.14;98813.06;1657906;85;22762;-89
2021/09/22 09:37:31;;;;;;;;;;;;;;;11.72;85.11;98810.02;1650799;85;26040;-89
2021/09/22 09:40:02;;;;;;;;;;;;;;;11.69;85.03;98807.13;1653001;85;24866;-89
2021/09/22 09:42:28;;;;;;;;;;;;;;;11.60;84.91;98813.00;1637799;84;20230;-89
2021/09/22 09:44:56;;;;;;;;;;;;;;;11.56;84.79;98810.70;1651107;85;20704;-89
2021/09/22 09:47:22;;;;;;;;;;;;;;;11.55;84.69;98815.10;1657455;85;22004;-90
2021/09/22 09:49:48;;;;;;;;;;;;;;;11.59;84.62;98812.63;1652156;85;20928;-91
2021/09/22 09:52:14;;;;;;;;;;;;;;;11.59;84.53;98815.72;1663092;84;24678;-90
2021/09/22 09:54:42;;;;;;;;;;;;;;;11.58;84.48;98817.50;1650899;85;20274;-89
2021/09/22 09:57:09;;;;;;;;;;;;;;;11.59;84.42;98820.50;1651785;85;24875;-89
2021/09/22 09:59:38;;;;;;;;;;;;;;;11.61;84.40;98817.31;1651911;85;22056;-89
2021/09/22 10:02:04;;;;;;;;;;;;;;;11.65;84.37;98817.93;1651372;84;26052;-89
2021/09/22 10:04:30;;;;;;;;;;;;;;;11.59;84.32;98824.42;1665068;84;24703;-89
2021/09/22 10:06:56;;;;;;;;;;;;;;;11.54;84.18;98824.37;1660654;84;20495;-89
2021/09/22 10:09:22;;;;;;;;;;;;;;;11.55;84.10;98822.96;1640877;85;20445;-89
2021/09/22 10:11:48;;;;;;;;;;;;;;;11.51;84.00;98831.95;1638085;85;20298;-89
2021/09/22 10:14:16;;;;;;;;;;;;;;;11.52;83.89;98826.24;1662511;85;26191;-88
2021/09/22 10:16:42;;;;;;;;;;;;;;;11.58;83.79;98829.77;1653867;85;24490;-89
2021/09/22 10:19:09;;;;;;;;;;;;;;;11.63;83.73;98825.89;1651519;85;20240;-89
2021/09/22 10:21:37;;;;;;;;;;;;;;;11.68;83.69;98829.03;1652718;85;24738;-88
2021/09/22 10:24:13;;;;;;;;;;;;;;;11.76;83.64;98835.11;1647802;86;22030;-89
2021/09/22 10:26:40;;;;;;;;;;;;;;;11.82;83.62;98844.34;1653221;85;26043;-89
2021/09/22 10:29:23;;;;;;;;;;;;;;;11.79;83.57;98835.36;1651411;85;23891;-89
2021/09/22 10:31:49;;;;;;;;;;;;;;;11.79;83.47;98844.53;1651303;85;20222;-89
2021/09/22 10:34:35;;;;;;;;;;;;;;;11.82;83.39;98845.66;1662292;83;24897;-89
2021/09/22 10:37:07;;;;;;;;;;;;;;;11.88;83.35;98848.70;1655314;84;22012;-89
2021/09/22 10:39:37;;;;;;;;;;;;;;;11.92;83.27;98846.23;1654618;84;26047;-88
2021/09/22 10:42:14;;;;;;;;;;;;;;;11.88;83.17;98843.45;1666501;84;24534;-89
2021/09/22 10:44:40;;;;;;;;;;;;;;;11.90;83.06;98837.62;1668045;84;20228;-89
2021/09/22 10:47:26;;;;;;;;;;;;;;;11.89;82.97;98836.44;1663887;84;20823;-89
2021/09/22 10:49:54;;;;;;;;;;;;;;;11.89;82.86;98843.80;1692437;83;22064;-89
2021/09/22 10:52:36;;;;;;;;;;;;;;;11.96;82.75;98839.82;1688981;83;26126;-89
2021/09/22 10:55:09;;;;;;;;;;;;;;;12.08;82.69;98840.77;1690979;83;24507;-89
2021/09/22 10:57:43;;;;;;;;;;;;;;;12.29;82.71;98849.75;1692584;83;20258;-89
2021/09/22 11:00:10;;;;;;;;;;;;;;;12.36;82.69;98847.08;1688562;83;24787;-89
2021/09/22 11:02:41;;;;;;;;;;;;;;;12.38;82.55;98848.29;1693731;83;21969;-89
2021/09/22 11:05:15;;;;;;;;;;;;;;;12.41;82.45;98851.52;1692529;83;25588;-89
2021/09/22 11:07:55;;;;;;;;;;;;;;;12.47;82.33;98844.53;1690094;83;24563;-89
2021/09/22 11:10:35;;;;;;;;;;;;;;;12.55;82.25;98841.34;1713451;81;20298;-89
2021/09/22 11:13:26;;;;;;;;;;;;;;;12.49;82.11;98845.23;1691607;83;25494;-89
2021/09/22 11:15:53;;;;;;;;;;;;;;;12.45;81.88;98841.64;1691553;83;23697;-89
2021/09/22 11:18:19;;;;;;;;;;;;;;;12.48;81.75;98844.91;1682748;84;26088;-89
2021/09/22 11:20:50;;;;;;;;;;;;;;;12.47;81.58;98840.59;1691676;83;24704;-89
2021/09/22 11:23:16;;;;;;;;;;;;;;;12.54;81.48;98850.19;1694103;83;20280;-89
2021/09/22 11:25:42;;;;;;;;;;;;;;;12.59;81.36;98846.77;1693750;83;20833;-89
2021/09/22 11:28:08;;;;;;;;;;;;;;;12.62;81.25;98849.16;1693518;83;20821;-89
2021/09/22 11:30:36;;;;;;;;;;;;;;;12.67;81.09;98850.97;1694284;83;26024;-89
2021/09/22 11:33:02;;;;;;;;;;;;;;;12.72;80.95;98844.91;1694702;83;24404;-89
2021/09/22 11:35:30;;;;;;;;;;;;;;;12.76;80.80;98844.24;1692594;82;20812;-89
2021/09/22 11:37:57;;;;;;;;;;;;;;;12.79;80.63;98842.69;1653685;85;24793;-89
2021/09/22 11:40:31;;;;;;;;;;;;;;;12.84;80.55;98847.98;1654153;84;22683;-89
2021/09/22 11:43:00;;;;;;;;;;;;;;;12.81;80.42;98845.59;1651463;85;26243;-89
2021/09/22 11:45:29;;;;;;;;;;;;;;;12.82;80.31;98842.48;1655997;84;24538;-89
2021/09/22 11:47:55;;;;;;;;;;;;;;;12.79;80.17;98842.69;1654630;85;20567;-89
2021/09/22 11:50:29;;;;;;;;;;;;;;;12.71;80.01;98848.48;1648533;85;24463;-89
2021/09/22 11:52:55;;;;;;;;;;;;;;;12.73;79.89;98840.50;1653984;85;22097;-90
2021/09/22 11:55:22;;;;;;;;;;;;;;;12.75;79.82;98851.28;1654746;84;26041;-89
2021/09/22 11:57:48;;;;;;;;;;;;;;;12.79;79.84;98850.57;1657869;84;24461;-89
2021/09/22 12:00:18;;;;;;;;;;;;;;;12.76;79.81;98850.34;1652274;85;20252;-89
2021/09/22 12:02:53;;;;;;;;;;;;;;;12.66;79.72;98851.08;1656388;84;25505;-88
2021/09/22 12:05:28;;;;;;;;;;;;;;;12.71;79.63;98851.11;1651670;85;21994;-89
2021/09/22 12:07:55;;;;;;;;;;;;;;;12.89;79.68;98851.58;1656556;84;26109;-88
2021/09/22 12:10:22;;;;;;;;;;;;;;;12.99;79.70;98846.02;1654635;85;24518;-89
2021/09/22 12:12:48;;;;;;;;;;;;;;;13.05;79.73;98851.30;1655765;84;20192;-89
2021/09/22 12:15:14;;;;;;;;;;;;;;;13.00;79.72;98854.27;1650046;84;24883;-89
2021/09/22 12:17:41;;;;;;;;;;;;;;;13.07;79.74;98857.29;1622977;87;22046;-89
2021/09/22 12:20:12;;;;;;;;;;;;;;;13.15;79.74;98856.27;1649717;85;25970;-89
2021/09/22 12:22:41;;;;;;;;;;;;;;;13.18;79.69;98860.00;1649286;85;23996;-89
2021/09/22 12:25:14;;;;;;;;;;;;;;;13.23;79.67;98865.28;1628687;86;20436;-88
2021/09/22 12:27:50;;;;;;;;;;;;;;;13.22;79.63;98862.76;1626360;86;24625;-89
2021/09/22 12:30:16;;;;;;;;;;;;;;;13.23;79.61;98868.39;1650833;85;21937;-89
2021/09/22 12:32:53;;;;;;;;;;;;;;;13.22;79.57;98868.86;1653524;85;26047;-89
2021/09/22 12:35:20;;;;;;;;;;;;;;;13.24;79.53;98870.91;1659777;85;25210;-88
2021/09/22 12:37:57;;;;;;;;;;;;;;;13.24;79.47;98872.22;1673614;85;20253;-89
2021/09/22 12:40:37;;;;;;;;;;;;;;;13.20;79.42;98873.87;1663559;85;24746;-89
2021/09/22 12:43:23;;;;;;;;;;;;;;;13.12;79.37;98880.16;1670990;83;22820;-89
2021/09/22 12:45:50;;;;;;;;;;;;;;;13.18;79.32;98880.55;1662173;85;26032;-89
2021/09/22 12:48:26;;;;;;;;;;;;;;;13.29;79.29;98882.39;1659234;85;24395;-89
2021/09/22 12:50:53;;;;;;;;;;;;;;;13.20;79.24;98891.77;1664571;85;20222;-89